Time;durP1;ratioP1;P1;durP2;ratioP2;P2;SDS_P1;SDS_P2;PMS_P1;PMS_P2;Temp;Humidity;BMP_temperature;BMP_pressure;BME280_temperature;BME280_humidity;BME280_pressure;Samples;Min_cycle;Max_cycle;Signal;HPM_P1;HPM_P2
2023/03/21 00:01:52;;;;;;;7.53;6.47;;;10.70;99.90;;;;;;5051601;28;20170;-66
2023/03/21 00:04:19;;;;;;;6.00;5.10;;;10.70;99.90;;;;;;5051597;28;20186;-65
2023/03/21 00:06:45;;;;;;;7.33;5.80;;;10.70;99.90;;;;;;5051067;28;20210;-65
2023/03/21 00:09:11;;;;;;;6.70;6.13;;;10.70;99.90;;;;;;5051273;28;20175;-65
2023/03/21 00:11:37;;;;;;;7.77;5.50;;;10.70;99.90;;;;;;5033912;28;20183;-64
2023/03/21 00:14:03;;;;;;;8.43;6.03;;;10.70;99.90;;;;;;5051321;28;20175;-65
2023/03/21 00:16:31;;;;;;;8.30;5.90;;;10.70;99.90;;;;;;5050905;28;20715;-65
2023/03/21 00:18:58;;;;;;;7.23;5.17;;;10.70;99.90;;;;;;5033188;28;20198;-65
2023/03/21 00:21:27;;;;;;;6.20;5.70;;;10.70;99.90;;;;;;5050958;28;20552;-64
2023/03/21 00:23:54;;;;;;;6.13;5.63;;;10.70;99.90;;;;;;5051300;28;20170;-65
2023/03/21 00:26:21;;;;;;;5.80;5.37;;;10.70;99.90;;;;;;5051133;28;20233;-65
2023/03/21 00:28:47;;;;;;;8.00;6.57;;;10.70;99.90;;;;;;5033183;28;20198;-65
2023/03/21 00:31:13;;;;;;;6.67;6.07;;;10.70;99.90;;;;;;5050413;28;20187;-64
2023/03/21 00:33:39;;;;;;;6.67;6.13;;;10.70;99.90;;;;;;5051167;28;20178;-64
2023/03/21 00:36:06;;;;;;;5.87;5.47;;;10.70;99.90;;;;;;5050748;28;20289;-65
2023/03/21 00:38:33;;;;;;;6.73;6.27;;;10.70;99.90;;;;;;5051069;28;20247;-65
2023/03/21 00:40:59;;;;;;;5.77;5.37;;;10.60;99.90;;;;;;5050593;28;20550;-65
2023/03/21 00:43:29;;;;;;;6.43;5.93;;;10.60;99.90;;;;;;5051110;28;20171;-65
2023/03/21 00:45:56;;;;;;;8.53;6.20;;;10.60;99.90;;;;;;5051036;28;20678;-65
2023/03/21 00:48:21;;;;;;;6.70;6.10;;;10.60;99.90;;;;;;5033254;28;20206;-64
2023/03/21 00:50:47;;;;;;;7.83;6.33;;;10.50;99.90;;;;;;5050568;28;20186;-65
2023/03/21 00:53:14;;;;;;;7.00;6.33;;;10.60;99.90;;;;;;5050998;28;20174;-64
2023/03/21 00:55:40;;;;;;;6.57;6.00;;;10.50;99.90;;;;;;5050805;28;20286;-65
2023/03/21 00:58:06;;;;;;;5.93;5.47;;;10.60;99.90;;;;;;5013322;28;20195;-65
2023/03/21 01:00:35;;;;;;;6.60;6.00;;;10.60;99.90;;;;;;5030680;28;20168;-65
2023/03/21 01:03:04;;;;;;;7.50;6.90;;;10.60;99.90;;;;;;5049941;28;20179;-65
2023/03/21 01:08:18;;;;;;;6.63;6.20;;;10.60;99.90;;;;;;5051092;28;20206;-65
2023/03/21 01:10:46;;;;;;;6.90;6.23;;;10.50;99.90;;;;;;5050296;28;20179;-65
2023/03/21 01:13:14;;;;;;;7.57;6.17;;;10.60;99.90;;;;;;5050788;28;20661;-64
2023/03/21 01:15:58;;;;;;;6.80;6.23;;;10.60;99.90;;;;;;5050837;28;20263;-64
2023/03/21 01:18:27;;;;;;;6.57;6.07;;;10.50;99.90;;;;;;5050810;28;20198;-66
2023/03/21 01:20:55;;;;;;;6.20;5.60;;;10.60;99.90;;;;;;5032533;28;20592;-65
2023/03/21 01:23:21;;;;;;;6.23;5.63;;;10.50;99.90;;;;;;5051104;28;20183;-64
2023/03/21 01:25:49;;;;;;;6.73;6.20;;;10.60;99.90;;;;;;5051083;28;20232;-64
2023/03/21 01:28:15;;;;;;;6.60;5.90;;;10.60;99.90;;;;;;5054315;28;20206;-65
2023/03/21 01:30:48;;;;;;;6.80;6.20;;;10.60;99.90;;;;;;5053651;28;20182;-65
2023/03/21 01:33:15;;;;;;;6.73;6.23;;;10.60;99.90;;;;;;5054202;28;20194;-66
2023/03/21 01:35:41;;;;;;;7.83;6.73;;;10.60;99.90;;;;;;5053921;28;20205;-65
2023/03/21 01:38:08;;;;;;;7.50;6.23;;;10.60;99.90;;;;;;5054160;28;20613;-65
2023/03/21 01:40:35;;;;;;;7.60;6.80;;;10.60;99.90;;;;;;5053663;28;20648;-64
2023/03/21 01:43:01;;;;;;;7.83;6.83;;;10.60;99.90;;;;;;5054087;28;20532;-65
2023/03/21 01:46:04;;;;;;;7.43;6.60;;;10.60;99.90;;;;;;5053837;28;20187;-65
2023/03/21 01:48:31;;;;;;;6.77;6.20;;;10.60;99.90;;;;;;5053995;28;20187;-64
2023/03/21 01:50:58;;;;;;;8.00;7.30;;;10.70;99.90;;;;;;5053385;28;20284;-65
2023/03/21 01:53:29;;;;;;;7.80;6.63;;;10.70;99.90;;;;;;5053785;28;20544;-64
2023/03/21 01:56:32;;;;;;;6.87;6.17;;;10.70;99.90;;;;;;5053680;28;20230;-65
2023/03/21 01:59:21;;;;;;;6.57;5.97;;;10.70;99.90;;;;;;5011615;28;20271;-64
2023/03/21 02:01:49;;;;;;;6.43;5.87;;;10.70;99.90;;;;;;5053795;28;20186;-65
2023/03/21 02:04:20;;;;;;;9.33;7.23;;;10.60;99.90;;;;;;5053403;28;20536;-64
2023/03/21 02:06:54;;;;;;;6.90;6.40;;;10.60;99.90;;;;;;5053367;28;20175;-64
2023/03/21 02:09:23;;;;;;;10.23;7.30;;;10.60;99.90;;;;;;5034723;28;20175;-64
2023/03/21 02:11:49;;;;;;;7.40;6.87;;;10.60;99.90;;;;;;5016221;28;20780;-64
2023/03/21 02:14:18;;;;;;;7.33;6.70;;;10.50;99.90;;;;;;5015931;28;20262;-64
2023/03/21 02:17:00;;;;;;;8.03;6.23;;;10.50;99.90;;;;;;5033458;28;20227;-64
2023/03/21 02:20:07;;;;;;;6.37;5.87;;;10.50;99.90;;;;;;5048228;28;20484;-64
2023/03/21 02:23:01;;;;;;;6.50;6.00;;;10.40;99.90;;;;;;5024187;28;20260;-65
2023/03/21 02:25:54;;;;;;;7.03;6.43;;;10.40;99.90;;;;;;5033245;28;20179;-65
2023/03/21 02:28:22;;;;;;;6.57;5.97;;;10.40;99.90;;;;;;5038006;28;20230;-65
2023/03/21 02:31:12;;;;;;;6.47;5.87;;;10.40;99.90;;;;;;5053129;28;20171;-65
2023/03/21 02:33:50;;;;;;;6.67;6.10;;;10.40;99.90;;;;;;5052885;28;20266;-65
2023/03/21 02:36:30;;;;;;;5.83;5.43;;;10.30;99.90;;;;;;5052940;28;20289;-67
2023/03/21 02:39:22;;;;;;;8.27;6.10;;;10.30;99.90;;;;;;5051742;28;20202;-65
2023/03/21 02:41:53;;;;;;;11.97;6.73;;;10.30;99.90;;;;;;5052711;28;20179;-65
2023/03/21 02:44:31;;;;;;;6.13;5.60;;;10.30;99.90;;;;;;5053187;28;20197;-65
2023/03/21 02:47:21;;;;;;;6.77;6.17;;;10.30;99.90;;;;;;5052305;28;20187;-65
2023/03/21 02:49:52;;;;;;;9.90;7.23;;;10.30;99.90;;;;;;5052531;28;20193;-65
2023/03/21 02:52:23;;;;;;;8.03;7.43;;;10.30;99.90;;;;;;5052670;28;20182;-65
2023/03/21 02:54:50;;;;;;;11.03;9.93;;;10.20;99.90;;;;;;5052784;28;20697;-64
2023/03/21 02:57:18;;;;;;;7.57;7.17;;;10.20;99.90;;;;;;5052334;28;20555;-65
2023/03/21 02:59:45;;;;;;;7.53;7.03;;;10.20;99.90;;;;;;5052220;28;20636;-65
2023/03/21 03:02:11;;;;;;;8.20;7.60;;;10.20;99.90;;;;;;5052388;28;20186;-65
2023/03/21 03:04:37;;;;;;;8.00;6.83;;;10.10;99.90;;;;;;5034569;28;20179;-64
2023/03/21 03:07:24;;;;;;;16.93;8.10;;;10.10;99.90;;;;;;5034357;28;20225;-65
2023/03/21 03:10:11;;;;;;;7.67;7.07;;;10.10;99.90;;;;;;5052068;28;20549;-65
2023/03/21 03:12:49;;;;;;;10.80;6.87;;;10.10;99.90;;;;;;5052401;28;20667;-65
2023/03/21 03:15:27;;;;;;;7.67;7.10;;;10.00;99.90;;;;;;5052524;28;20739;-65
2023/03/21 03:18:03;;;;;;;8.20;6.00;;;10.00;99.90;;;;;;5034123;28;20533;-65
2023/03/21 03:21:12;;;;;;;7.70;6.67;;;9.90;99.90;;;;;;5051816;28;20167;-64
2023/03/21 03:24:04;;;;;;;7.23;6.63;;;9.90;99.90;;;;;;5037650;28;20609;-65
2023/03/21 03:26:40;;;;;;;7.00;6.40;;;9.80;99.90;;;;;;5028194;28;20195;-65
2023/03/21 03:29:10;;;;;;;10.77;6.37;;;9.80;99.90;;;;;;5051944;28;20189;-64
2023/03/21 03:31:42;;;;;;;7.50;6.90;;;9.70;99.90;;;;;;5051444;28;20179;-65
2023/03/21 03:34:21;;;;;;;10.10;7.20;;;9.60;99.90;;;;;;5052114;28;20178;-65
2023/03/21 03:36:54;;;;;;;7.90;7.30;;;9.60;99.90;;;;;;5051560;28;20202;-66
2023/03/21 03:39:28;;;;;;;8.53;7.43;;;9.60;99.90;;;;;;5033600;28;20217;-65
2023/03/21 03:41:59;;;;;;;9.07;6.50;;;9.60;99.90;;;;;;5051830;28;20216;-64
2023/03/21 03:44:27;;;;;;;8.87;7.00;;;9.70;99.90;;;;;;5051515;28;20167;-65
2023/03/21 03:47:06;;;;;;;9.23;7.33;;;9.70;99.90;;;;;;5051492;28;20536;-64
2023/03/21 03:49:37;;;;;;;7.57;6.87;;;9.80;99.90;;;;;;5050761;28;20174;-65
2023/03/21 03:52:27;;;;;;;10.53;7.70;;;9.80;99.90;;;;;;5051786;28;20174;-65
2023/03/21 03:54:53;;;;;;;8.10;7.43;;;9.90;99.90;;;;;;5051493;28;20301;-65
2023/03/21 03:57:19;;;;;;;12.13;7.30;;;9.90;99.90;;;;;;5051308;28;20203;-64
2023/03/21 03:59:46;;;;;;;7.57;6.90;;;9.90;99.90;;;;;;5050994;28;20171;-65
2023/03/21 04:02:12;;;;;;;7.53;6.73;;;10.00;99.90;;;;;;5051606;28;20194;-65
2023/03/21 04:04:38;;;;;;;7.73;6.87;;;10.00;99.90;;;;;;5051255;28;20167;-64
2023/03/21 04:07:05;;;;;;;12.27;7.27;;;9.90;99.90;;;;;;5033528;28;20201;-65
2023/03/21 04:09:31;;;;;;;12.07;7.60;;;9.90;99.90;;;;;;5050703;28;20289;-65
2023/03/21 04:11:57;;;;;;;9.03;7.57;;;9.90;99.90;;;;;;5051459;28;20642;-65
2023/03/21 04:14:24;;;;;;;8.40;7.77;;;9.80;99.90;;;;;;5051400;28;20175;-65
2023/03/21 04:16:50;;;;;;;7.90;7.30;;;9.80;99.90;;;;;;5050772;28;20242;-65
2023/03/21 04:19:17;;;;;;;8.97;8.27;;;9.80;99.90;;;;;;5050958;28;20252;-65
2023/03/21 04:21:42;;;;;;;9.97;8.97;;;9.80;99.90;;;;;;5051073;28;20289;-64
2023/03/21 04:24:08;;;;;;;8.27;7.50;;;9.70;99.90;;;;;;5051334;28;20170;-64
2023/03/21 04:26:35;;;;;;;7.47;6.77;;;9.70;99.90;;;;;;5051094;28;20596;-64
2023/03/21 04:29:01;;;;;;;11.07;6.87;;;9.70;99.90;;;;;;5051152;28;20221;-64
2023/03/21 04:31:30;;;;;;;7.70;7.10;;;9.70;99.90;;;;;;5050882;28;20640;-64
2023/03/21 04:34:11;;;;;;;7.50;6.93;;;9.80;99.90;;;;;;5051232;28;20171;-64
2023/03/21 04:36:44;;;;;;;8.63;7.53;;;9.80;99.90;;;;;;5051067;28;20261;-66
2023/03/21 04:39:13;;;;;;;8.07;7.37;;;9.80;99.90;;;;;;5051018;28;20167;-65
2023/03/21 04:41:44;;;;;;;9.93;7.47;;;9.80;99.90;;;;;;5032996;28;20225;-66
2023/03/21 04:44:11;;;;;;;8.23;7.43;;;9.80;99.90;;;;;;5051238;28;20169;-64
2023/03/21 04:46:37;;;;;;;8.47;7.97;;;9.80;99.90;;;;;;5033001;28;20233;-64
2023/03/21 04:49:03;;;;;;;9.10;8.30;;;9.80;99.90;;;;;;5051174;28;20207;-64
2023/03/21 04:51:29;;;;;;;7.67;7.03;;;9.80;99.90;;;;;;5050741;28;20225;-64
2023/03/21 04:53:58;;;;;;;7.90;7.10;;;9.90;99.90;;;;;;5033353;28;20179;-65
2023/03/21 04:56:32;;;;;;;8.63;7.60;;;9.80;99.90;;;;;;5050583;28;20226;-65
2023/03/21 04:59:00;;;;;;;7.30;6.73;;;9.90;99.90;;;;;;5051093;28;20187;-65
2023/03/21 05:01:29;;;;;;;8.50;7.60;;;9.90;99.90;;;;;;5051832;28;20179;-65
2023/03/21 05:03:58;;;;;;;6.97;6.23;;;9.90;99.90;;;;;;5037077;28;20173;-65
2023/03/21 05:06:25;;;;;;;7.57;6.80;;;9.90;99.90;;;;;;5054387;28;20170;-64
2023/03/21 05:08:51;;;;;;;6.67;6.17;;;9.90;99.90;;;;;;5054665;28;20194;-65
2023/03/21 05:11:16;;;;;;;6.87;6.27;;;9.90;99.90;;;;;;5054004;28;20183;-65
2023/03/21 05:13:42;;;;;;;6.83;6.23;;;9.90;99.90;;;;;;5054688;28;20202;-64
2023/03/21 05:16:08;;;;;;;7.67;6.80;;;9.90;99.90;;;;;;5054317;28;20253;-65
2023/03/21 05:18:37;;;;;;;7.53;7.03;;;9.90;99.90;;;;;;5054431;28;20199;-65
2023/03/21 05:21:06;;;;;;;7.37;6.77;;;9.90;99.90;;;;;;5054344;28;20174;-65
2023/03/21 05:23:37;;;;;;;7.27;6.40;;;9.90;99.90;;;;;;5036466;28;20170;-65
2023/03/21 05:26:05;;;;;;;6.93;6.43;;;9.90;99.90;;;;;;5036613;28;20183;-65
2023/03/21 05:28:35;;;;;;;7.00;6.40;;;9.90;99.90;;;;;;5036689;28;20203;-67
2023/03/21 05:31:05;;;;;;;6.77;6.27;;;9.90;99.90;;;;;;5036275;28;20183;-65
2023/03/21 05:33:31;;;;;;;7.83;6.73;;;9.90;99.90;;;;;;5036446;28;20193;-65
2023/03/21 05:35:57;;;;;;;7.13;6.53;;;9.90;99.90;;;;;;5036333;28;20206;-65
2023/03/21 05:38:24;;;;;;;10.10;7.00;;;9.90;99.90;;;;;;5036523;28;20605;-65
2023/03/21 05:40:50;;;;;;;8.73;7.93;;;9.90;99.90;;;;;;5053991;28;20264;-65
2023/03/21 05:43:16;;;;;;;6.97;6.33;;;9.80;99.90;;;;;;5034210;28;20171;-66
2023/03/21 05:45:42;;;;;;;8.90;7.40;;;9.80;99.90;;;;;;5016428;28;20762;-66
2023/03/21 05:48:08;;;;;;;9.87;6.87;;;9.70;99.90;;;;;;5053075;28;20179;-65
2023/03/21 05:50:34;;;;;;;12.77;8.07;;;9.70;99.90;;;;;;5053365;28;20210;-65
2023/03/21 05:52:59;;;;;;;8.97;8.20;;;9.60;99.90;;;;;;5054327;28;20524;-65
2023/03/21 05:55:25;;;;;;;7.57;6.83;;;9.60;99.90;;;;;;5054185;28;20179;-66
2023/03/21 05:57:51;;;;;;;8.67;8.07;;;9.50;99.90;;;;;;5054155;28;20194;-66
2023/03/21 06:00:17;;;;;;;7.40;6.87;;;9.50;99.90;;;;;;5053656;28;20182;-66
2023/03/21 06:02:43;;;;;;;8.97;8.13;;;9.50;99.90;;;;;;5054022;28;20672;-65
2023/03/21 06:05:09;;;;;;;10.50;9.53;;;9.50;99.90;;;;;;5053757;28;20178;-63
2023/03/21 06:07:36;;;;;;;10.20;9.47;;;9.50;99.90;;;;;;5053415;28;20203;-65
2023/03/21 06:10:03;;;;;;;8.37;7.67;;;9.50;99.90;;;;;;5053491;28;20174;-65
2023/03/21 06:12:29;;;;;;;11.17;8.57;;;9.50;99.90;;;;;;5040799;28;20253;-65
2023/03/21 06:14:55;;;;;;;10.77;8.10;;;9.60;99.90;;;;;;5042035;28;20696;-65
2023/03/21 06:17:20;;;;;;;10.80;10.00;;;9.60;99.90;;;;;;5053325;28;20293;-65
2023/03/21 06:19:46;;;;;;;14.73;13.63;;;9.60;99.90;;;;;;5053268;28;20175;-65
2023/03/21 06:22:12;;;;;;;11.80;10.47;;;9.60;99.90;;;;;;5053315;28;20175;-65
2023/03/21 06:24:37;;;;;;;10.63;9.83;;;9.60;99.90;;;;;;5053841;28;20183;-66
2023/03/21 06:27:04;;;;;;;9.67;8.70;;;9.60;99.90;;;;;;5053231;28;20195;-66
2023/03/21 06:29:30;;;;;;;10.20;9.40;;;9.60;99.90;;;;;;5052885;28;20220;-65
2023/03/21 06:31:56;;;;;;;8.90;8.27;;;9.60;99.90;;;;;;5053005;28;20179;-66
2023/03/21 06:34:22;;;;;;;9.30;8.57;;;9.60;99.90;;;;;;5053423;28;20590;-65
2023/03/21 06:36:47;;;;;;;9.13;8.43;;;9.60;99.90;;;;;;5052784;28;20211;-66
2023/03/21 06:39:14;;;;;;;8.40;7.60;;;9.60;99.90;;;;;;5052853;28;20198;-65
2023/03/21 06:41:40;;;;;;;7.60;7.10;;;9.60;99.90;;;;;;5052984;28;20170;-65
2023/03/21 06:44:06;;;;;;;7.50;6.90;;;9.60;99.90;;;;;;5053272;28;20258;-65
2023/03/21 06:46:32;;;;;;;8.80;7.10;;;9.60;99.90;;;;;;5052811;28;20205;-65
2023/03/21 06:48:57;;;;;;;7.33;6.83;;;9.60;99.90;;;;;;5053101;28;20652;-65
2023/03/21 06:51:23;;;;;;;9.13;8.10;;;9.70;99.90;;;;;;5052288;28;20659;-65
2023/03/21 06:53:49;;;;;;;9.27;7.40;;;9.70;99.90;;;;;;5035005;28;20179;-65
2023/03/21 06:56:15;;;;;;;8.37;7.70;;;9.70;99.90;;;;;;5048541;28;20682;-65
2023/03/21 06:58:41;;;;;;;10.97;9.80;;;9.70;99.90;;;;;;5054586;28;20248;-66
2023/03/21 07:01:07;;;;;;;9.57;8.83;;;9.80;99.90;;;;;;5034966;28;20544;-66
2023/03/21 07:03:33;;;;;;;10.43;9.57;;;9.80;99.90;;;;;;5052528;28;20205;-66
2023/03/21 07:06:05;;;;;;;9.07;8.37;;;9.80;99.90;;;;;;5052607;28;20179;-65
2023/03/21 07:08:31;;;;;;;8.67;7.97;;;9.70;99.90;;;;;;5051140;28;20198;-65
2023/03/21 07:10:57;;;;;;;12.43;9.20;;;9.70;99.90;;;;;;5052076;28;20178;-66
2023/03/21 07:13:23;;;;;;;7.47;6.97;;;9.70;99.90;;;;;;5052110;28;20182;-65
2023/03/21 07:15:48;;;;;;;11.47;8.10;;;9.80;99.90;;;;;;5052070;28;20214;-66
2023/03/21 07:18:14;;;;;;;8.17;7.43;;;9.80;99.90;;;;;;5052307;28;20255;-66
2023/03/21 07:20:39;;;;;;;8.13;7.43;;;9.80;99.90;;;;;;5051547;28;20167;-66
2023/03/21 07:23:06;;;;;;;10.13;6.90;;;9.90;99.90;;;;;;5052176;28;20198;-66
2023/03/21 07:25:32;;;;;;;7.83;7.23;;;10.00;99.90;;;;;;5051375;28;20190;-66
2023/03/21 07:27:57;;;;;;;10.93;8.00;;;10.00;99.90;;;;;;5052445;28;20187;-66
2023/03/21 07:30:23;;;;;;;8.90;8.10;;;10.10;99.90;;;;;;5051781;28;20232;-66
2023/03/21 07:32:48;;;;;;;9.83;8.83;;;10.20;99.90;;;;;;5052474;28;20535;-66
2023/03/21 07:35:16;;;;;;;9.00;8.20;;;10.20;99.90;;;;;;5051927;28;20202;-65
2023/03/21 07:37:41;;;;;;;7.80;7.20;;;10.20;99.90;;;;;;5051723;28;20614;-66
2023/03/21 07:40:11;;;;;;;8.10;6.90;;;10.20;99.90;;;;;;5050620;28;20300;-66
2023/03/21 07:42:40;;;;;;;8.17;7.47;;;10.20;99.90;;;;;;5033981;28;20261;-66
2023/03/21 07:45:08;;;;;;;9.40;8.50;;;10.20;99.90;;;;;;5051586;28;20179;-66
2023/03/21 07:47:34;;;;;;;8.87;8.20;;;10.20;99.90;;;;;;5051419;28;20203;-65
2023/03/21 07:50:00;;;;;;;7.47;6.37;;;10.10;99.90;;;;;;5051117;28;20190;-66
2023/03/21 07:52:26;;;;;;;17.30;8.03;;;10.10;99.90;;;;;;5051522;28;20182;-66
2023/03/21 07:54:51;;;;;;;7.87;7.23;;;10.00;99.90;;;;;;5051299;28;20525;-66
2023/03/21 07:57:17;;;;;;;9.37;7.70;;;10.00;99.90;;;;;;5051428;28;20225;-66
2023/03/21 07:59:43;;;;;;;7.07;6.53;;;10.00;99.90;;;;;;5050821;28;20167;-66
2023/03/21 08:02:17;;;;;;;14.57;8.37;;;10.00;99.90;;;;;;5051421;28;20185;-65
2023/03/21 08:04:43;;;;;;;7.63;6.80;;;10.00;99.90;;;;;;5033116;28;20273;-66
2023/03/21 08:07:10;;;;;;;7.13;6.47;;;10.00;99.90;;;;;;5051400;28;20627;-65
2023/03/21 08:09:36;;;;;;;9.17;7.93;;;9.90;99.90;;;;;;5050585;28;20182;-66
2023/03/21 08:12:03;;;;;;;9.13;8.07;;;9.90;99.90;;;;;;5051185;28;20204;-66
2023/03/21 08:14:28;;;;;;;7.63;6.83;;;9.90;99.90;;;;;;5051213;28;20648;-66
2023/03/21 08:16:54;;;;;;;8.37;7.57;;;9.90;99.90;;;;;;5051289;28;20207;-66
2023/03/21 08:19:20;;;;;;;9.87;7.07;;;9.90;99.90;;;;;;5050486;28;20167;-66
2023/03/21 08:21:48;;;;;;;13.57;7.43;;;10.00;99.90;;;;;;5051055;28;20182;-66
2023/03/21 08:24:14;;;;;;;9.53;8.63;;;10.00;99.90;;;;;;5051066;28;20166;-66
2023/03/21 08:26:40;;;;;;;8.30;7.50;;;10.00;99.90;;;;;;5050992;28;20193;-65
2023/03/21 08:29:06;;;;;;;12.33;7.37;;;10.00;99.90;;;;;;5050728;28;20178;-64
2023/03/21 08:31:32;;;;;;;7.43;6.73;;;10.00;99.90;;;;;;5050502;28;20190;-65
2023/03/21 08:33:57;;;;;;;7.93;7.23;;;10.00;99.90;;;;;;5051171;28;20205;-66
2023/03/21 08:36:23;;;;;;;7.83;7.00;;;10.00;99.90;;;;;;5052064;28;20336;-66
2023/03/21 08:38:53;;;;;;;11.77;7.90;;;10.00;99.90;;;;;;5053962;28;20201;-64
2023/03/21 08:41:20;;;;;;;11.60;7.30;;;10.10;99.90;;;;;;5036802;28;20206;-65
2023/03/21 08:43:47;;;;;;;9.93;7.37;;;10.10;99.90;;;;;;5054954;28;20166;-66
2023/03/21 08:46:13;;;;;;;8.93;8.23;;;10.20;99.90;;;;;;5055223;28;20620;-66
2023/03/21 08:48:38;;;;;;;12.83;9.27;;;10.20;99.90;;;;;;5054786;28;20273;-65
2023/03/21 08:51:05;;;;;;;9.63;8.73;;;10.10;99.90;;;;;;5054696;28;20262;-66
2023/03/21 08:53:32;;;;;;;12.00;8.67;;;10.10;99.90;;;;;;5037054;28;20670;-66
2023/03/21 08:55:57;;;;;;;10.77;9.67;;;10.10;99.90;;;;;;5054932;28;20272;-66
2023/03/21 08:58:23;;;;;;;8.93;8.03;;;10.10;99.90;;;;;;5054781;28;20222;-65
2023/03/21 09:00:49;;;;;;;9.70;8.23;;;10.10;99.90;;;;;;5054163;28;20178;-66
2023/03/21 09:03:15;;;;;;;8.93;8.03;;;10.10;99.90;;;;;;5054727;28;20654;-66
2023/03/21 09:05:44;;;;;;;8.80;7.90;;;10.20;99.90;;;;;;5054480;28;20317;-66
2023/03/21 09:08:11;;;;;;;11.30;7.83;;;10.20;99.90;;;;;;5054765;28;20605;-65
2023/03/21 09:10:38;;;;;;;14.37;9.50;;;10.20;99.90;;;;;;5054136;28;20175;-66
2023/03/21 09:13:04;;;;;;;9.23;8.40;;;10.30;99.90;;;;;;5054655;28;20186;-65
2023/03/21 09:15:30;;;;;;;11.20;8.23;;;10.30;99.90;;;;;;5054109;28;20175;-65
2023/03/21 09:17:57;;;;;;;9.80;8.10;;;10.30;99.90;;;;;;5054186;28;20213;-65
2023/03/21 09:20:29;;;;;;;12.57;8.70;;;10.40;99.90;;;;;;5054018;28;20224;-66
2023/03/21 09:22:57;;;;;;;12.50;8.83;;;10.60;99.90;;;;;;5054445;28;20643;-65
2023/03/21 09:25:23;;;;;;;8.87;8.03;;;10.70;99.90;;;;;;5054102;28;20697;-66
2023/03/21 09:27:50;;;;;;;9.77;8.20;;;10.90;99.90;;;;;;5054222;28;20205;-65
2023/03/21 09:30:18;;;;;;;16.27;7.57;;;11.10;99.90;;;;;;5053891;28;20186;-65
2023/03/21 09:32:48;;;;;;;9.33;8.53;;;11.30;99.90;;;;;;5033053;28;20199;-66
2023/03/21 09:35:18;;;;;;;8.70;7.87;;;11.40;99.90;;;;;;5034272;28;20540;-65
2023/03/21 09:37:44;;;;;;;8.10;7.50;;;11.40;99.90;;;;;;5053241;28;20245;-65
2023/03/21 09:40:39;;;;;;;8.00;7.23;;;11.40;99.90;;;;;;5035217;28;20175;-65
2023/03/21 09:43:41;;;;;;;7.97;7.27;;;11.40;99.90;;;;;;5035754;28;20182;-66
2023/03/21 09:46:11;;;;;;;8.87;7.27;;;11.30;99.90;;;;;;5054010;28;20212;-65
2023/03/21 09:49:00;;;;;;;10.03;7.20;;;11.20;99.90;;;;;;5035717;28;20209;-66
2023/03/21 09:51:31;;;;;;;9.70;7.03;;;11.30;99.90;;;;;;5053122;28;20605;-65
2023/03/21 09:54:02;;;;;;;11.60;8.60;;;11.30;99.90;;;;;;5054001;28;20241;-66
2023/03/21 09:56:30;;;;;;;11.50;8.77;;;11.30;99.90;;;;;;5053858;28;20268;-66
2023/03/21 09:58:58;;;;;;;11.20;8.47;;;11.30;99.90;;;;;;5053733;28;20674;-66
2023/03/21 10:01:33;;;;;;;10.63;7.90;;;11.40;99.90;;;;;;5053013;28;20175;-66
2023/03/21 10:04:05;;;;;;;9.07;8.30;;;11.40;99.90;;;;;;5053899;28;20178;-66
2023/03/21 10:06:33;;;;;;;8.20;7.47;;;11.30;99.90;;;;;;5053158;28;20187;-66
2023/03/21 10:09:06;;;;;;;8.93;8.03;;;11.30;99.90;;;;;;5053575;28;20273;-66
2023/03/21 10:11:46;;;;;;;12.20;7.47;;;11.30;99.90;;;;;;5053207;28;20651;-66
2023/03/21 10:14:20;;;;;;;9.60;7.40;;;11.30;99.90;;;;;;5038107;28;20281;-66
2023/03/21 10:16:55;;;;;;;9.80;7.93;;;11.30;99.90;;;;;;5044626;28;20207;-66
2023/03/21 10:19:22;;;;;;;9.47;8.57;;;11.40;99.90;;;;;;5043227;28;20182;-66
2023/03/21 10:21:50;;;;;;;8.90;7.43;;;11.50;99.90;;;;;;5049137;28;20281;-66
2023/03/21 10:24:20;;;;;;;8.90;7.40;;;11.50;99.90;;;;;;5045997;28;20190;-66
2023/03/21 10:26:48;;;;;;;8.40;6.93;;;11.70;99.90;;;;;;5049159;28;20183;-66
2023/03/21 10:29:15;;;;;;;9.70;8.70;;;11.70;99.90;;;;;;5049533;28;20233;-66
2023/03/21 10:31:42;;;;;;;8.57;7.27;;;11.70;99.90;;;;;;5047096;28;20721;-66
2023/03/21 10:34:36;;;;;;;10.17;8.80;;;11.70;99.90;;;;;;5037104;28;20225;-66
2023/03/21 10:37:03;;;;;;;13.80;6.67;;;11.80;99.90;;;;;;5049142;28;20206;-65
2023/03/21 10:39:43;;;;;;;13.43;7.90;;;11.70;99.90;;;;;;5049428;28;20175;-65
2023/03/21 10:42:22;;;;;;;8.10;6.60;;;11.70;99.90;;;;;;5049820;28;20608;-65
2023/03/21 10:44:51;;;;;;;11.37;8.10;;;11.60;99.90;;;;;;5049612;28;20245;-65
2023/03/21 10:47:23;;;;;;;9.40;8.50;;;11.60;99.90;;;;;;5031332;28;20635;-65
2023/03/21 10:49:49;;;;;;;7.03;6.30;;;11.70;99.90;;;;;;5049168;28;20186;-65
2023/03/21 10:52:19;;;;;;;7.60;6.53;;;11.60;99.90;;;;;;5031482;28;20183;-65
2023/03/21 10:54:45;;;;;;;10.03;7.33;;;11.60;99.90;;;;;;5049042;28;20790;-65
2023/03/21 10:57:20;;;;;;;8.80;7.87;;;11.60;99.90;;;;;;5049297;28;20214;-65
2023/03/21 10:59:57;;;;;;;13.57;7.10;;;11.60;99.90;;;;;;5029603;28;20179;-65
2023/03/21 11:02:33;;;;;;;7.17;6.57;;;11.70;99.90;;;;;;5031309;28;20179;-65
2023/03/21 11:05:21;;;;;;;8.20;6.70;;;11.90;99.90;;;;;;5048858;28;20186;-65
2023/03/21 11:07:55;;;;;;;8.27;6.43;;;11.90;99.90;;;;;;5048954;28;20210;-65
2023/03/21 11:10:33;;;;;;;8.13;7.33;;;11.90;99.90;;;;;;5030586;28;20181;-64
2023/03/21 11:13:04;;;;;;;7.87;6.40;;;11.80;99.90;;;;;;5049437;28;20181;-65
2023/03/21 11:15:39;;;;;;;11.17;6.80;;;11.90;99.90;;;;;;5048850;28;20191;-65
2023/03/21 11:18:24;;;;;;;7.13;6.53;;;12.00;99.90;;;;;;5048873;28;20199;-65
2023/03/21 11:21:01;;;;;;;7.57;6.97;;;12.10;99.90;;;;;;5048266;28;20179;-65
2023/03/21 11:23:30;;;;;;;7.33;6.63;;;12.20;99.90;;;;;;5048805;28;20174;-65
2023/03/21 11:25:57;;;;;;;7.37;6.53;;;12.20;99.90;;;;;;5048717;28;20265;-65
2023/03/21 11:28:32;;;;;;;7.97;6.67;;;12.20;99.90;;;;;;5048395;28;20190;-65
2023/03/21 11:31:00;;;;;;;7.53;6.83;;;12.20;99.90;;;;;;5048231;28;20232;-64
2023/03/21 11:33:31;;;;;;;8.30;6.80;;;12.10;99.90;;;;;;5048424;28;20537;-64
2023/03/21 11:36:06;;;;;;;6.93;6.40;;;12.00;99.90;;;;;;5048393;28;20268;-64
2023/03/21 11:38:38;;;;;;;7.70;6.50;;;12.00;99.90;;;;;;5048172;28;20737;-66
2023/03/21 11:41:05;;;;;;;8.10;5.93;;;11.90;99.90;;;;;;5047976;28;20178;-65
2023/03/21 11:43:49;;;;;;;9.57;6.77;;;11.90;99.90;;;;;;5048675;28;20673;-66
2023/03/21 11:46:15;;;;;;;6.33;5.80;;;11.80;99.90;;;;;;5047300;28;20189;-66
2023/03/21 11:48:43;;;;;;;7.37;6.67;;;11.70;99.90;;;;;;5048291;28;20623;-65
2023/03/21 11:51:32;;;;;;;7.23;6.73;;;11.70;99.90;;;;;;5048057;28;20210;-65
2023/03/21 11:54:18;;;;;;;9.20;6.97;;;11.60;99.90;;;;;;5048979;28;20226;-66
2023/03/21 11:56:50;;;;;;;8.00;7.33;;;11.60;99.90;;;;;;5047634;28;20201;-65
2023/03/21 11:59:34;;;;;;;7.47;6.70;;;11.50;99.90;;;;;;5047996;28;20175;-66
2023/03/21 12:02:47;;;;;;;9.40;8.23;;;11.40;99.90;;;;;;5029908;28;20170;-65
2023/03/21 12:05:21;;;;;;;9.23;8.50;;;11.20;99.90;;;;;;5048080;28;20205;-66
2023/03/21 12:08:08;;;;;;;7.80;7.20;;;11.20;99.90;;;;;;5047722;28;21213;-65
2023/03/21 12:10:52;;;;;;;7.70;6.97;;;11.10;99.90;;;;;;5047489;28;20171;-68
2023/03/21 12:13:50;;;;;;;9.20;6.73;;;11.00;99.90;;;;;;5048388;28;20183;-65
2023/03/21 12:16:42;;;;;;;8.50;7.80;;;10.90;99.90;;;;;;5046828;28;20198;-65
2023/03/21 12:19:12;;;;;;;8.50;7.43;;;10.90;99.90;;;;;;5046266;28;20612;-65
2023/03/21 12:21:43;;;;;;;8.03;7.33;;;10.80;99.90;;;;;;5029747;28;20175;-65
2023/03/21 12:24:32;;;;;;;7.60;7.10;;;10.70;99.90;;;;;;5048361;28;20719;-66
2023/03/21 12:27:01;;;;;;;8.83;7.90;;;10.70;99.90;;;;;;5047945;28;20174;-66
2023/03/21 12:29:50;;;;;;;8.50;7.80;;;10.70;99.90;;;;;;5047911;28;20175;-66
2023/03/21 12:32:31;;;;;;;8.53;7.87;;;10.80;99.90;;;;;;5048099;28;20190;-66
2023/03/21 12:35:19;;;;;;;8.30;7.60;;;11.00;99.90;;;;;;5047885;28;20523;-66
2023/03/21 12:37:57;;;;;;;8.27;7.57;;;11.10;99.90;;;;;;5047400;28;20714;-66
2023/03/21 12:40:32;;;;;;;6.97;6.47;;;11.30;99.90;;;;;;5048157;28;20199;-66
2023/03/21 12:43:22;;;;;;;8.73;6.73;;;11.30;99.90;;;;;;5047912;28;20174;-66
2023/03/21 12:45:51;;;;;;;9.93;7.37;;;11.40;99.90;;;;;;5030077;28;20179;-66
2023/03/21 12:48:26;;;;;;;8.57;7.60;;;11.50;99.90;;;;;;5047727;28;20785;-66
2023/03/21 12:50:55;;;;;;;9.47;7.90;;;11.60;99.90;;;;;;5048120;28;20544;-66
2023/03/21 12:53:52;;;;;;;8.83;8.03;;;11.60;99.90;;;;;;5048026;28;20175;-65
2023/03/21 12:56:28;;;;;;;8.67;7.97;;;11.80;99.90;;;;;;5048235;28;20211;-65
2023/03/21 12:59:19;;;;;;;8.20;7.70;;;11.90;99.90;;;;;;5048159;28;20201;-65
2023/03/21 13:01:47;;;;;;;8.63;8.03;;;12.10;99.90;;;;;;5047585;28;20637;-65
2023/03/21 13:04:34;;;;;;;7.73;7.00;;;12.10;99.90;;;;;;5047405;28;20174;-65
2023/03/21 13:07:04;;;;;;;8.17;7.37;;;12.20;99.90;;;;;;5047956;28;20198;-68
2023/03/21 13:09:36;;;;;;;11.00;7.13;;;12.30;99.90;;;;;;5047182;28;20183;-65
2023/03/21 13:12:14;;;;;;;8.63;7.17;;;12.40;99.90;;;;;;5047770;28;20224;-65